Time,TemperatureF,DewpointF,PressureIn,WindDirection,WindDirectionDegrees,WindSpeedMPH,WindSpeedGustMPH,Humidity,HourlyPrecipIn,Conditions,Clouds,dailyrainin,SoftwareType,DateUTC
2013-03-11 00:06:00,23.7,23.2,29.85,NNW,337,9.9,-999.0,98,-99.99,,,0.00,Acu-Link.com,2013-03-11 05:06:00,
2013-03-11 00:22:00,23.7,23.2,29.86,NW,315,16.1,-999.0,98,-99.99,,,0.00,Acu-Link.com,2013-03-11 05:22:00,
2013-03-11 00:37:00,23.4,22.9,29.86,NNW,337,10.9,-999.0,98,-99.99,,,0.00,Acu-Link.com,2013-03-11 05:37:00,
2013-03-11 00:52:00,23.0,22.5,29.86,NW,315,11.9,-999.0,98,-99.99,,,0.00,Acu-Link.com,2013-03-11 05:52:00,
2013-03-11 01:07:00,23.0,22.5,29.86,NNW,337,11.9,-999.0,98,-99.99,,,0.00,Acu-Link.com,2013-03-11 06:07:00,
2013-03-11 01:22:00,22.8,22.3,29.86,West,270,5.8,-999.0,98,-99.99,,,0.00,Acu-Link.com,2013-03-11 06:22:00,
2013-03-11 01:38:00,22.8,22.3,29.86,NNW,337,7.3,-999.0,98,-99.99,,,0.00,Acu-Link.com,2013-03-11 06:38:00,
2013-03-11 01:53:00,22.8,22.3,29.86,WNW,292,9.4,-999.0,98,-99.99,,,0.00,Acu-Link.com,2013-03-11 06:53:00,
2013-03-11 02:08:00,22.8,22.3,29.86,WNW,292,9.9,-999.0,98,-99.99,,,0.00,Acu-Link.com,2013-03-11 07:08:00,
2013-03-11 02:23:00,22.6,22.1,29.85,NNW,337,11.4,-999.0,98,-99.99,,,0.00,Acu-Link.com,2013-03-11 07:23:00,
2013-03-11 02:39:00,22.5,22.0,29.84,NW,315,9.9,-999.0,98,-99.99,,,0.00,Acu-Link.com,2013-03-11 07:39:00,
2013-03-11 02:54:00,22.6,22.1,29.84,West,270,9.9,-999.0,98,-99.99,,,0.00,Acu-Link.com,2013-03-11 07:54:00,
2013-03-11 03:09:00,22.8,22.3,29.84,WNW,292,9.4,-999.0,98,-99.99,,,0.00,Acu-Link.com,2013-03-11 08:09:00,
2013-03-11 03:24:00,23.0,22.5,29.84,WNW,292,7.8,-999.0,98,-99.99,,,0.00,Acu-Link.com,2013-03-11 08:24:00,
2013-03-11 03:39:00,23.0,22.5,29.83,West,270,5.8,-999.0,98,-99.99,,,0.00,Acu-Link.com,2013-03-11 08:39:00,
2013-03-11 03:54:00,23.0,22.5,29.83,North,0,8.9,-999.0,98,-99.99,,,0.00,Acu-Link.com,2013-03-11 08:54:00,
2013-03-11 04:10:00,22.6,22.1,29.82,North,0,14.5,-999.0,98,-99.99,,,0.00,Acu-Link.com,2013-03-11 09:10:00,
2013-03-11 04:25:00,22.5,22.0,29.82,NNW,337,5.8,-999.0,98,-99.99,,,0.00,Acu-Link.com,2013-03-11 09:25:00,
2013-03-11 04:40:00,22.1,21.6,29.82,West,270,6.3,-999.0,98,-99.99,,,0.00,Acu-Link.com,2013-03-11 09:40:00,
2013-03-11 04:55:00,21.9,21.4,29.82,NW,315,4.2,-999.0,98,-99.99,,,0.00,Acu-Link.com,2013-03-11 09:55:00,
2013-03-11 05:10:00,21.6,21.1,29.82,NW,315,4.2,-999.0,98,-99.99,,,0.00,Acu-Link.com,2013-03-11 10:10:00,
2013-03-11 05:26:00,20.8,20.3,29.82,WNW,292,6.3,-999.0,98,-99.99,,,0.00,Acu-Link.com,2013-03-11 10:26:00,
2013-03-11 05:56:00,20.3,19.8,29.83,West,270,7.3,-999.0,98,-99.99,,,0.00,Acu-Link.com,2013-03-11 10:56:00,
2013-03-11 06:11:00,20.3,19.8,29.83,West,270,5.8,-999.0,98,-99.99,,,0.00,Acu-Link.com,2013-03-11 11:11:00,
2013-03-11 06:26:00,20.3,19.8,29.83,West,270,8.9,-999.0,98,-99.99,,,0.00,Acu-Link.com,2013-03-11 11:26:00,
2013-03-11 06:42:00,20.1,19.6,29.83,NW,315,3.7,-999.0,98,-99.99,,,0.00,Acu-Link.com,2013-03-11 11:42:00,
2013-03-11 06:57:00,19.6,19.1,29.84,NW,315,5.8,-999.0,98,-99.99,,,0.00,Acu-Link.com,2013-03-11 11:57:00,
2013-03-11 07:12:00,19.6,19.1,29.85,West,270,10.9,-999.0,98,-99.99,,,0.00,Acu-Link.com,2013-03-11 12:12:00,
2013-03-11 07:27:00,19.6,19.1,29.84,West,270,9.4,-999.0,98,-99.99,,,0.00,Acu-Link.com,2013-03-11 12:27:00,
2013-03-11 07:43:00,19.8,19.3,29.85,NW,315,6.3,-999.0,98,-99.99,,,0.00,Acu-Link.com,2013-03-11 12:43:00,
2013-03-11 07:58:00,19.8,19.3,29.84,NW,315,8.3,-999.0,98,-99.99,,,0.00,Acu-Link.com,2013-03-11 12:58:00,
2013-03-11 08:13:00,20.1,19.6,29.84,WNW,292,7.3,-999.0,98,-99.99,,,0.00,Acu-Link.com,2013-03-11 13:13:00,
2013-03-11 08:28:00,20.8,20.3,29.84,WNW,292,9.9,-999.0,98,-99.99,,,0.00,Acu-Link.com,2013-03-11 13:28:00,
2013-03-11 08:43:00,21.0,20.5,29.86,West,270,5.3,-999.0,98,-99.99,,,0.00,Acu-Link.com,2013-03-11 13:43:00,
2013-03-11 08:59:00,20.8,20.3,29.87,West,270,11.9,-999.0,98,-99.99,,,0.00,Acu-Link.com,2013-03-11 13:59:00,
2013-03-11 09:14:00,21.4,20.9,29.87,WNW,292,9.9,-999.0,98,-99.99,,,0.00,Acu-Link.com,2013-03-11 14:14:00,
2013-03-11 09:29:00,21.9,21.4,29.87,NNW,337,3.7,-999.0,98,-99.99,,,0.00,Acu-Link.com,2013-03-11 14:29:00,
2013-03-11 09:44:00,21.9,21.4,29.87,NNW,337,6.3,-999.0,98,-99.99,,,0.00,Acu-Link.com,2013-03-11 14:44:00,
2013-03-11 09:59:00,22.1,21.6,29.88,WSW,247,6.8,-999.0,98,-99.99,,,0.00,Acu-Link.com,2013-03-11 14:59:00,
2013-03-11 10:15:00,22.3,21.8,29.87,NW,315,5.3,-999.0,98,-99.99,,,0.00,Acu-Link.com,2013-03-11 15:15:00,
2013-03-11 10:30:00,23.0,22.5,29.87,West,270,5.8,-999.0,98,-99.99,,,0.00,Acu-Link.com,2013-03-11 15:30:00,
2013-03-11 10:45:00,23.0,22.5,29.86,WNW,292,8.3,-999.0,98,-99.99,,,0.00,Acu-Link.com,2013-03-11 15:45:00,
2013-03-11 11:01:00,24.3,23.8,29.85,West,270,7.8,-999.0,98,-99.99,,,0.00,Acu-Link.com,2013-03-11 16:01:00,
2013-03-11 11:31:00,27.5,27.0,29.85,NNW,337,4.7,-999.0,98,-99.99,,,0.00,Acu-Link.com,2013-03-11 16:31:00,
2013-03-11 11:46:00,27.7,27.2,29.84,WNW,292,7.3,-999.0,98,-99.99,,,0.00,Acu-Link.com,2013-03-11 16:46:00,
2013-03-11 12:01:00,27.7,27.2,29.84,NNW,337,7.8,-999.0,98,-99.99,,,0.00,Acu-Link.com,2013-03-11 17:01:00,
2013-03-11 12:32:00,28.2,27.7,29.84,NNW,337,7.3,-999.0,98,-99.99,,,0.00,Acu-Link.com,2013-03-11 17:32:00,
2013-03-11 12:47:00,28.4,27.9,29.84,NW,315,10.4,-999.0,98,-99.99,,,0.00,Acu-Link.com,2013-03-11 17:47:00,
2013-03-11 13:02:00,28.4,27.9,29.85,West,270,8.3,-999.0,98,-99.99,,,0.00,Acu-Link.com,2013-03-11 18:02:00,
2013-03-11 13:17:00,27.9,27.4,29.85,WNW,292,10.4,-999.0,98,-99.99,,,0.00,Acu-Link.com,2013-03-11 18:17:00,
2013-03-11 13:33:00,28.0,27.5,29.85,West,270,5.8,-999.0,98,-99.99,,,0.00,Acu-Link.com,2013-03-11 18:33:00,
2013-03-11 13:48:00,27.5,27.0,29.85,WNW,292,3.2,-999.0,98,-99.99,,,0.00,Acu-Link.com,2013-03-11 18:48:00,
2013-03-11 14:03:00,27.1,26.6,29.84,NNW,337,6.3,-999.0,98,-99.99,,,0.00,Acu-Link.com,2013-03-11 19:03:00,
2013-03-11 14:18:00,27.9,27.4,29.83,NW,315,6.3,-999.0,98,-99.99,,,0.00,Acu-Link.com,2013-03-11 19:18:00,
2013-03-11 14:34:00,29.7,29.2,29.82,West,270,5.3,-999.0,98,-99.99,,,0.00,Acu-Link.com,2013-03-11 19:34:00,
2013-03-11 14:49:00,30.0,29.5,29.81,West,270,4.7,-999.0,98,-99.99,,,0.00,Acu-Link.com,2013-03-11 19:49:00,
2013-03-11 15:04:00,30.7,30.2,29.82,WNW,292,8.9,-999.0,98,-99.99,,,0.00,Acu-Link.com,2013-03-11 20:04:00,
2013-03-11 15:19:00,30.9,30.2,29.83,NNW,337,5.3,-999.0,97,-99.99,,,0.00,Acu-Link.com,2013-03-11 20:19:00,
2013-03-11 15:34:00,31.6,31.1,29.83,West,270,5.3,-999.0,98,-99.99,,,0.00,Acu-Link.com,2013-03-11 20:34:00,
2013-03-11 15:50:00,32.4,31.9,29.83,North,0,3.7,-999.0,98,-99.99,,,0.00,Acu-Link.com,2013-03-11 20:50:00,
2013-03-11 16:05:00,32.7,32.2,29.83,West,270,3.7,-999.0,98,-99.99,,,0.00,Acu-Link.com,2013-03-11 21:05:00,
2013-03-11 16:20:00,32.7,30.6,29.84,West,270,5.8,-999.0,92,-99.99,,,0.00,Acu-Link.com,2013-03-11 21:20:00,
2013-03-11 16:35:00,32.9,31.4,29.84,North,0,6.3,-999.0,94,-99.99,,,0.00,Acu-Link.com,2013-03-11 21:35:00,
2013-03-11 16:50:00,34.2,31.9,29.82,West,270,2.2,-999.0,91,-99.99,,,0.00,Acu-Link.com,2013-03-11 21:50:00,
2013-03-11 17:36:00,33.3,29.9,29.83,West,270,2.7,-999.0,87,-99.99,,,0.00,Acu-Link.com,2013-03-11 22:36:00,
2013-03-11 18:07:00,33.1,29.4,29.84,NNW,337,3.7,-999.0,86,-99.99,,,0.00,Acu-Link.com,2013-03-11 23:07:00,
2013-03-11 18:37:00,32.7,29.5,29.86,NNE,22,2.2,-999.0,88,-99.99,,,0.00,Acu-Link.com,2013-03-11 23:37:00,
2013-03-11 19:07:00,31.5,27.5,29.87,NE,45,1.1,-999.0,85,-99.99,,,0.00,Acu-Link.com,2013-03-12 00:07:00,
2013-03-11 19:23:00,30.2,26.5,29.87,WSW,247,0.0,-999.0,86,-99.99,,,0.00,Acu-Link.com,2013-03-12 00:23:00,
2013-03-11 19:38:00,29.1,25.7,29.86,SSW,202,0.0,-999.0,87,-99.99,,,0.00,Acu-Link.com,2013-03-12 00:38:00,
2013-03-11 20:08:00,28.2,27.0,29.88,SW,225,2.7,-999.0,95,-99.99,,,0.00,Acu-Link.com,2013-03-12 01:08:00,
2013-03-11 20:23:00,27.3,26.8,29.89,WSW,247,0.0,-999.0,98,-99.99,,,0.00,Acu-Link.com,2013-03-12 01:23:00,
2013-03-11 20:39:00,26.8,26.3,29.91,NW,315,1.1,-999.0,98,-99.99,,,0.00,Acu-Link.com,2013-03-12 01:39:00,
2013-03-11 20:54:00,27.5,27.0,29.91,NNW,337,0.0,-999.0,98,-99.99,,,0.00,Acu-Link.com,2013-03-12 01:54:00,
2013-03-11 21:09:00,27.5,27.0,29.91,SSW,202,0.0,-999.0,98,-99.99,,,0.00,Acu-Link.com,2013-03-12 02:09:00,
2013-03-11 21:24:00,27.3,26.8,29.91,West,270,0.0,-999.0,98,-99.99,,,0.00,Acu-Link.com,2013-03-12 02:24:00,
2013-03-11 21:39:00,26.8,26.3,29.91,NW,315,0.0,-999.0,98,-99.99,,,0.00,Acu-Link.com,2013-03-12 02:39:00,
2013-03-11 21:55:00,27.0,24.7,29.91,NW,315,0.0,-999.0,91,-99.99,,,0.00,Acu-Link.com,2013-03-12 02:55:00,
2013-03-11 22:10:00,27.3,26.8,29.92,NW,315,0.0,-999.0,98,-99.99,,,0.00,Acu-Link.com,2013-03-12 03:10:00,
2013-03-11 22:25:00,26.6,26.1,29.92,SW,225,2.2,-999.0,98,-99.99,,,0.00,Acu-Link.com,2013-03-12 03:25:00,
2013-03-11 22:40:00,26.1,25.6,29.92,NW,315,0.0,-999.0,98,-99.99,,,0.00,Acu-Link.com,2013-03-12 03:40:00,
2013-03-11 22:55:00,26.1,23.8,29.93,WNW,292,0.0,-999.0,91,-99.99,,,0.00,Acu-Link.com,2013-03-12 03:55:00,
2013-03-11 23:11:00,25.9,25.4,29.94,WNW,292,0.0,-999.0,98,-99.99,,,0.00,Acu-Link.com,2013-03-12 04:11:00,
2013-03-11 23:41:00,26.6,25.9,29.94,SSW,202,2.7,-999.0,97,-99.99,,,0.00,Acu-Link.com,2013-03-12 04:41:00,
2013-03-11 23:56:00,25.9,25.4,29.94,West,270,0.0,-999.0,98,-99.99,,,0.00,Acu-Link.com,2013-03-12 04:56:00,